Flight Track Log - Related Links

Times and Time Zones

All times are in EST time to prevent confusion due to time zone crossing. See the N100PU flight status page for this flight to view local times or setup timezone preferences in your user account.

Time Position Orientation Groundspeed Altitude Reporting Facility
EST Latitude Longitude Course Direction KTS MPH feet Rate Location/Type
Tue 02:49:14 PM 39.6242 -87.1981 14° North 224 258 8,100  Level Indianapolis Center
Tue 02:50:16 PM 39.6939 -87.1750 14° North 250 288 9,000 145 Climbing Indianapolis Center
Tue 02:51:18 PM 39.7917 -87.1436 14° North 294 338 8,400 -774 Descending Indianapolis Center
Tue 02:52:00 PM 39.6957 -87.2015 14° North  Level FlightAware Approximate
Tue 02:52:20 PM 39.8697 -87.1172 15° North 292 336 7,400  Level Indianapolis Center
Tue 02:53:00 PM 39.7458 -87.1848 14° North  Level FlightAware Approximate
Tue 02:53:22 PM 39.9469 -87.0922 14° North 288 331 6,400  Level Indianapolis Center
Tue 02:54:00 PM 39.7959 -87.1681 14° North  Level FlightAware Approximate
Tue 02:54:24 PM 40.0203 -87.0669 15° North 282 325 5,400  Level Indianapolis Center
Tue 02:55:26 PM 40.0869 -87.0450 14° North 268 308 5,000 -190 Descending Indianapolis Center
Tue 02:56:30 PM 40.1558 -87.0233 14° North 259 298 5,000 -343 Level Chicago Center
Tue 02:56:36 PM 40.1739 -87.0183 12° North 252 290 4,600 -1,791 Descending Chicago Center
Tue 02:57:37 PM 40.2353 -86.9981 14° North 240 276 3,000 -821 Descending Chicago Center
Tue 02:58:33 PM 40.2872 -86.9956 North 231 266 3,000  Level Chicago Center
Tue 02:58:37 PM 40.2872 -87.0014 270° West 195 224 3,000  Level Chicago Center
Tue 02:59:35 PM 40.3108 -87.0606 298° West 210 242 3,000  Level Chicago Center
Tue 02:59:38 PM 40.3117 -87.0714 276° West 193 222 3,000  Level Chicago Center
Tue 03:00:37 PM 40.3358 -87.1311 298° West 203 234 3,000  Level Chicago Center
Tue 03:00:38 PM 40.3342 -87.1328 217° Southwest 194 223 3,000  Level Chicago Center
Tue 03:01:39 PM 40.3608 -87.1947 299° West 193 222 3,000 -197 Level Chicago Center
Tue 03:02:40 PM 40.4086 -87.1981 357° North 187 215 2,600 -198 Descending Chicago Center
Tue 03:03:40 PM 40.4394 -87.1592 44° Northeast 160 184 2,600  Level Chicago Center
Tue 03:04:41 PM 40.4314 -87.1014 100° East 163 188 2,600 -99 Level Chicago Center
Tue 03:05:41 PM 40.4250 -87.0572 101° East 106 122 2,400 -347 Descending Chicago Center
Tue 03:06:42 PM 40.4219 -87.0269 98° East 80 92 1,900 -492 Descending Chicago Center

Login

Don't have an account? Register now (free) for customized features, flight alerts, and more!